Latest Weather Observations for Kyabram

IDV60801

Issued at 12:02 am EST Friday 29 July 2016 (issued every 30 minutes, with the page automatically refreshed every 10 minutes)

About weather observations | Map of weather stations | Latest weather observations for VIC | Other Formats
Station Details ID: 080091 Name: KYABRAM Lat: -36.34 Lon: 145.06 Height: 105.0 m
Data from the previous 72 hours. | See also: Recent months at Kyabram
Date/Time
EST
Temp
°C
App
Temp
°C
Dew
Point
°C
Rel
Hum
%
Delta-T
°C
Wind Press
QNH
hPa
Press
MSL
hPa
Rain since
9am
mm
Dir  Spd
km/h
Gust
km/h
Spd
kts
Gust
kts
29/12:00am 9.6 7.3 9.1 97 0.2 NNW 11 17 6 9 - - 1.0
 
Date/Time
EST
Temp
°C
App
Temp
°C
Dew
Point
°C
Rel
Hum
%
Delta-T
°C
Wind Press
QNH
hPa
Press
MSL
hPa
Rain since
9am
mm
Dir  Spd
km/h
Gust
km/h
Spd
kts
Gust
kts
28/11:30pm 9.4 7.9 9.3 99 0.0 NNW 7 11 4 6 - - 1.0
28/11:00pm 9.4 7.6 9.3 99 0.0 NNW 9 13 5 7 - - 1.0
28/10:30pm 9.4 7.1 9.1 98 0.1 N 11 15 6 8 - - 1.0
28/10:00pm 9.5 7.5 8.7 95 0.4 N 9 17 5 9 - - 1.0
28/09:30pm 9.7 7.4 8.9 95 0.4 N 11 17 6 9 - - 1.0
28/09:00pm 9.6 7.2 8.8 95 0.4 NNW 11 15 6 8 - - 1.0
28/08:30pm 9.6 7.6 8.7 94 0.4 N 9 13 5 7 - - 1.0
28/08:00pm 9.8 8.2 8.6 92 0.6 N 7 9 4 5 - - 1.0
28/07:30pm 10.0 8.1 8.9 93 0.5 N 9 13 5 7 - - 1.0
28/07:00pm 10.1 9.9 9.0 93 0.5 CALM 0 0 0 0 - - 1.0
28/06:30pm 10.2 10.1 9.3 94 0.4 CALM 0 0 0 0 - - 1.0
28/06:00pm 10.2 8.4 9.6 96 0.3 NNW 9 13 5 7 - - 1.0
28/05:30pm 10.4 8.5 9.0 91 0.7 NW 9 19 5 10 - - 1.0
28/05:00pm 10.8 8.8 8.6 86 1.1 NW 9 17 5 9 - - 1.0
28/04:30pm 11.6 9.5 8.3 80 1.6 WNW 9 15 5 8 - - 1.0
28/04:00pm 11.2 10.7 9.5 89 0.9 WNW 2 13 1 7 - - 1.0
28/03:30pm 11.1 9.2 9.2 88 1.0 WSW 9 19 5 10 - - 0.8
28/03:00pm 12.0 9.8 9.4 84 1.3 WNW 11 24 6 13 - - 0.8
28/02:30pm 11.6 9.2 10.2 91 0.7 W 13 24 7 13 - - 0.8
28/02:00pm 11.5 9.6 9.2 86 1.2 NW 9 13 5 7 - - 0.4
28/01:30pm 10.9 8.3 9.3 90 0.8 W 13 22 7 12 - - 0.4
28/01:00pm 10.7 7.5 8.6 87 1.0 W 15 24 8 13 - - 0.4
28/12:30pm 11.2 9.7 10.4 95 0.4 WNW 9 15 5 8 - - 0.4
28/12:00pm 10.6 8.9 10.0 96 0.3 NW 9 17 5 9 - - 0.4
28/11:30am 10.1 8.0 9.8 98 0.2 W 11 17 6 9 - - 0.4
28/11:00am 10.6 7.8 8.7 88 0.9 WNW 13 20 7 11 - - 0.0
28/10:30am 10.1 8.5 8.9 92 0.6 NW 7 13 4 7 - - 0.0
28/10:00am 9.5 7.0 8.4 93 0.5 NW 11 26 6 14 - - 0.0
28/09:30am 9.3 6.8 8.1 92 0.6 NW 11 19 6 10 - - 0.0
28/09:00am 8.8 6.2 7.9 94 0.4 NW 11 20 6 11 - - 0.0
28/08:30am 8.4 6.2 8.0 97 0.2 NW 9 15 5 8 - - 0.0
28/08:00am 8.0 5.7 7.4 96 0.3 WNW 9 17 5 9 - - 0.0
28/07:30am 7.5 5.5 6.9 96 0.3 WNW 7 17 4 9 - - 0.0
28/07:00am 6.1 3.5 6.0 99 0.0 WNW 9 19 5 10 - - 0.0
28/06:30am 5.4 3.0 5.1 98 0.1 WNW 7 15 4 8 - - 0.0
28/06:00am 5.4 2.9 5.0 97 0.2 NW 7 15 4 8 - - 0.0
28/05:30am 5.5 4.4 5.2 98 0.1 CALM 0 2 0 1 - - 0.0
28/05:00am 5.8 3.6 5.2 96 0.3 NW 6 13 3 7 - - 0.0
28/04:30am 6.1 3.8 5.5 96 0.3 WNW 7 17 4 9 - - 0.0
28/04:00am 6.2 3.5 5.6 96 0.3 WNW 9 19 5 10 - - 0.0
28/03:30am 6.2 4.1 5.6 96 0.3 WNW 6 15 3 8 - - 0.0
28/03:00am 6.2 3.5 5.6 96 0.3 WNW 9 15 5 8 - - 0.0
28/02:30am 5.9 4.9 5.8 99 0.0 CALM 0 0 0 0 - - 0.0
28/02:00am 5.3 3.4 5.0 98 0.1 NW 4 9 2 5 - - 0.0
28/01:30am 5.2 3.7 4.8 97 0.2 WNW 2 9 1 5 - - 0.0
28/01:00am 5.6 4.5 5.2 97 0.2 CALM 0 0 0 0 - - 0.0
28/12:30am 6.1 5.1 5.5 96 0.3 CALM 0 0 0 0 - - 0.0
28/12:00am 6.1 3.9 5.5 96 0.3 WNW 6 9 3 5 - - 0.0
 
Date/Time
EST
Temp
°C
App
Temp
°C
Dew
Point
°C
Rel
Hum
%
Delta-T
°C
Wind Press
QNH
hPa
Press
MSL
hPa
Rain since
9am
mm
Dir  Spd
km/h
Gust
km/h
Spd
kts
Gust
kts
27/11:30pm 6.4 5.4 5.4 93 0.4 CALM 0 0 0 0 - - 0.0
27/11:00pm 7.5 6.2 6.0 90 0.7 NNW 2 7 1 4 - - 0.0
27/10:30pm 8.3 7.2 6.9 91 0.7 NNW 2 9 1 5 - - 0.0
27/10:00pm 8.2 7.5 6.8 91 0.7 CALM 0 0 0 0 - - 0.0
27/09:30pm 8.0 7.2 6.3 89 0.8 CALM 0 0 0 0 - - 0.0
27/09:00pm 8.1 7.3 6.7 91 0.6 CALM 0 0 0 0 - - 0.0
27/08:30pm 7.9 6.9 5.7 86 1.0 CALM 0 0 0 0 - - 0.0
27/08:00pm 7.5 6.1 5.5 87 0.9 W 2 9 1 5 - - 0.0
27/07:30pm 8.1 5.9 5.4 83 1.2 W 6 11 3 6 - - 0.0
27/07:00pm 8.7 7.4 6.0 83 1.2 W 2 9 1 5 - - 0.0
27/06:30pm 8.4 7.4 5.7 83 1.2 CALM 0 0 0 0 - - 0.0
27/06:00pm 8.0 6.9 4.9 81 1.4 CALM 0 0 0 0 - - 0.0
27/05:30pm 9.3 8.2 5.1 75 1.9 CALM 0 6 0 3 - - 0.0
27/05:00pm 9.8 7.3 4.8 71 2.3 WSW 7 13 4 7 - - 0.0
27/04:30pm 10.5 7.3 4.9 68 2.5 SW 11 19 6 10 - - 0.0
27/04:00pm 10.8 7.6 5.1 68 2.6 WSW 11 22 6 12 - - 0.0
27/03:30pm 11.0 7.1 5.3 68 2.6 WSW 15 24 8 13 - - 0.0
27/03:00pm 12.2 8.4 5.8 65 3.0 WSW 15 32 8 17 - - 0.0
27/02:30pm 12.5 8.0 6.3 66 3.0 WSW 19 37 10 20 - - 0.0
27/02:00pm 12.9 8.9 6.5 65 3.1 WSW 17 32 9 17 - - 0.0
27/01:30pm 13.4 10.0 7.6 68 2.9 WSW 15 26 8 14 - - 0.0
27/01:00pm 12.8 9.4 7.7 71 2.5 W 15 24 8 13 - - 0.0
27/12:30pm 12.6 9.8 8.5 76 2.0 WSW 13 20 7 11 - - 0.0
27/12:00pm 11.6 8.9 9.0 84 1.3 WSW 13 20 7 11 - - 0.0
27/11:30am 11.2 9.0 9.5 89 0.9 W 11 19 6 10 - - 0.0
27/11:00am 10.8 8.2 9.4 91 0.7 W 13 20 7 11 - - 0.0
27/10:30am 10.5 8.3 9.4 93 0.6 W 11 20 6 11 - - 0.0
27/10:00am 10.1 8.0 9.6 97 0.3 W 11 20 6 11 - - 0.0
27/09:30am 9.2 6.9 9.1 99 0.0 WNW 11 17 6 9 - - 0.0
27/09:00am 9.0 7.1 8.9 99 0.0 WNW 9 17 5 9 - - 6.0
27/08:30am 8.6 5.8 8.5 99 0.0 W 13 19 7 10 - - 6.0
27/08:00am 8.4 5.9 8.3 99 0.0 WNW 11 17 6 9 - - 6.0
27/07:30am 8.1 5.9 8.0 99 0.0 WNW 9 15 5 8 - - 6.0
27/07:00am 7.9 5.7 7.8 99 0.0 W 9 17 5 9 - - 6.0
27/06:30am 7.2 4.8 7.1 99 0.0 W 9 15 5 8 - - 6.0
27/06:00am 7.1 5.1 7.0 99 0.0 W 7 11 4 6 - - 6.0
27/05:30am 7.7 5.4 7.6 99 0.0 W 9 13 5 7 - - 6.0
27/05:00am 8.1 5.6 8.0 99 0.0 W 11 19 6 10 - - 6.0
27/04:30am 8.1 6.3 8.0 99 0.0 W 7 13 4 7 - - 5.8
27/04:00am 8.0 6.2 7.9 99 0.0 WNW 7 15 4 8 - - 5.4
27/03:30am 8.1 5.6 8.0 99 0.0 WNW 11 17 6 9 - - 5.4
27/03:00am 8.1 5.9 8.0 99 0.0 NW 9 17 5 9 - - 5.4
27/02:30am 8.0 5.4 7.9 99 0.0 NW 11 24 6 13 - - 5.4
27/02:00am 7.5 4.4 7.4 99 0.0 N 13 20 7 11 - - 5.4
27/01:30am 7.4 4.3 7.3 99 0.0 N 13 19 7 10 - - 5.2
27/01:00am 7.6 4.9 7.5 99 0.0 N 11 17 6 9 - - 4.6
27/12:30am 7.2 4.1 7.1 99 0.0 N 13 17 7 9 - - 3.8
27/12:00am 7.3 4.6 7.2 99 0.0 NNE 11 17 6 9 - - 3.0
 
Date/Time
EST
Temp
°C
App
Temp
°C
Dew
Point
°C
Rel
Hum
%
Delta-T
°C
Wind Press
QNH
hPa
Press
MSL
hPa
Rain since
9am
mm
Dir  Spd
km/h
Gust
km/h
Spd
kts
Gust
kts
26/11:30pm 7.4 4.5 6.7 95 0.3 NNE 11 17 6 9 - - 2.2
26/11:00pm 7.7 4.7 6.2 90 0.7 N 11 17 6 9 - - 1.8
26/10:30pm 7.5 4.1 6.0 90 0.7 N 13 19 7 10 - - 1.6
26/10:00pm 7.9 4.4 5.4 84 1.1 N 13 20 7 11 - - 1.6
26/09:30pm 8.1 4.6 5.4 83 1.2 N 13 20 7 11 - - 1.6
26/09:00pm 8.3 4.8 5.6 83 1.2 N 13 20 7 11 - - 1.6
26/08:30pm 8.0 4.6 5.8 86 1.0 N 13 17 7 9 - - 1.6
26/08:00pm 7.7 4.7 5.8 88 0.9 NNE 11 17 6 9 - - 1.4
26/07:30pm 8.1 5.1 6.2 88 0.9 N 11 15 6 8 - - 1.4
26/07:00pm 8.2 5.7 6.5 89 0.8 N 9 13 5 7 - - 1.4
26/06:30pm 8.2 5.3 6.3 88 0.9 N 11 17 6 9 - - 1.4
26/06:00pm 8.3 5.3 5.9 85 1.1 N 11 19 6 10 - - 1.4
26/05:30pm 8.2 5.2 6.2 87 0.9 N 11 15 6 8 - - 1.4
26/05:00pm 8.7 5.5 6.7 87 0.9 NNW 13 20 7 11 - - 1.4
26/04:30pm 8.5 5.4 7.1 91 0.7 NW 13 19 7 10 - - 1.4
26/04:00pm 8.1 5.9 7.7 97 0.2 NW 9 13 5 7 - - 1.4
26/03:30pm 8.9 5.0 6.9 87 0.9 NNW 17 32 9 17 - - 0.4
26/03:00pm 10.0 5.3 6.0 76 1.9 N 20 32 11 17 - - 0.0
26/02:30pm 10.1 4.6 5.7 74 2.0 N 24 37 13 20 - - 0.0
26/02:00pm 10.6 4.6 5.2 69 2.5 N 26 35 14 19 - - 0.0
26/01:30pm 10.8 5.7 5.8 71 2.3 NNW 22 33 12 18 - - 0.0
26/01:00pm 10.8 6.0 5.6 70 2.4 NNW 20 33 11 18 - - 0.0
26/12:30pm 10.0 4.9 6.2 77 1.8 NNW 22 32 12 17 - - 0.0
26/12:00pm 10.8 6.8 6.7 76 1.9 NNW 17 28 9 15 - - 0.0
26/11:30am 10.2 6.3 6.9 80 1.6 NW 17 24 9 13 - - 0.0
26/11:00am 9.2 4.7 6.1 81 1.4 NNW 19 22 10 12 - - 0.0
26/10:30am 8.6 5.5 5.5 81 1.4 WNW 11 22 6 12 - - 0.0
26/10:00am 8.1 5.0 5.6 84 1.1 WNW 11 20 6 11 - - 0.0
26/09:30am 7.4 4.0 5.7 89 0.8 NW 13 22 7 12 - - 0.0
26/09:00am 6.1 2.9 4.9 92 0.5 NW 11 17 6 9 - - 1.2
26/08:30am 5.2 1.6 4.8 97 0.2 NNW 13 19 7 10 - - 1.2
26/08:00am 4.2 0.1 4.1 99 0.0 NNW 15 19 8 10 - - 1.2
26/07:30am 4.0 -0.2 3.9 99 0.0 NNW 15 19 8 10 - - 1.2
26/07:00am 4.4 1.0 4.1 98 0.1 NW 11 17 6 9 - - 1.2
26/06:30am 4.7 1.3 4.1 96 0.3 NW 11 22 6 12 - - 1.2
26/06:00am 4.8 1.5 4.4 97 0.2 NW 11 17 6 9 - - 1.2
26/05:30am 4.9 1.3 4.8 99 0.0 NW 13 20 7 11 - - 1.2
26/05:00am 4.3 1.7 4.2 99 0.0 NW 7 11 4 6 - - 1.2
26/04:30am 4.5 1.9 4.1 97 0.2 NW 7 13 4 7 - - 1.2
26/04:00am 4.8 2.2 4.1 95 0.3 NW 7 13 4 7 - - 1.2
26/03:30am 5.0 2.0 4.1 94 0.4 NW 9 15 5 8 - - 1.2
26/03:00am 5.5 2.1 4.2 91 0.6 WNW 11 19 6 10 - - 1.2
26/02:30am 5.8 2.4 4.1 89 0.7 WNW 11 17 6 9 - - 1.2
26/02:00am 6.2 2.5 4.7 90 0.7 WNW 13 22 7 12 - - 1.2
26/01:30am 6.6 3.0 5.1 90 0.7 WNW 13 24 7 13 - - 1.2
26/01:00am 7.2 3.8 5.7 90 0.7 WNW 13 52 7 28 - - 1.2
26/12:30am 7.3 4.3 5.8 90 0.7 WNW 11 19 6 10 - - 1.2

Other Formats:

Comma delimited format used in spreadsheet applications
http://www.bom.gov.au/fwo/IDV60801/IDV60801.95833.axf

JavaScript Object Notation format (JSON) in row-major order
http://www.bom.gov.au/fwo/IDV60801/IDV60801.95833.json